Time;durP1;ratioP1;P1;durP2;ratioP2;P2;SDS_P1;SDS_P2;PMS_P1;PMS_P2;Temp;Humidity;BMP_temperature;BMP_pressure;BME280_temperature;BME280_humidity;BME280_pressure;Samples;Min_cycle;Max_cycle;Signal;HPM_P1;HPM_P2
2022/07/23 00:00:44;;;;;;;14.02;11.43;;;;;;;;;;5091580;28;20040;-49
2022/07/23 00:03:11;;;;;;;11.30;9.88;;;;;;;;;;5091846;28;20120;-50
2022/07/23 00:05:39;;;;;;;16.50;12.80;;;;;;;;;;5091798;28;20102;-47
2022/07/23 00:08:07;;;;;;;11.10;8.90;;;;;;;;;;5091866;28;20047;-51
2022/07/23 00:10:40;;;;;;;12.05;10.02;;;;;;;;;;5091822;28;20062;-53
2022/07/23 00:13:07;;;;;;;11.52;8.63;;;;;;;;;;5091618;28;20134;-47
2022/07/23 00:15:35;;;;;;;11.95;9.95;;;;;;;;;;5091865;28;20044;-48
2022/07/23 00:18:02;;;;;;;13.13;11.10;;;;;;;;;;5091659;28;20043;-51
2022/07/23 00:20:32;;;;;;;12.27;10.55;;;;;;;;;;5091771;28;20036;-50
2022/07/23 00:23:00;;;;;;;19.40;13.85;;;;;;;;;;5091713;28;20043;-47
2022/07/23 00:25:27;;;;;;;9.75;8.75;;;;;;;;;;5091789;28;20044;-47
2022/07/23 00:27:58;;;;;;;8.90;8.00;;;;;;;;;;5091599;28;20392;-49
2022/07/23 00:30:26;;;;;;;14.48;11.35;;;;;;;;;;5082311;28;20618;-48
2022/07/23 00:32:56;;;;;;;9.02;8.13;;;;;;;;;;5112062;28;20044;-48
2022/07/23 00:35:27;;;;;;;11.68;7.30;;;;;;;;;;5115114;28;20114;-47
2022/07/23 00:37:55;;;;;;;15.15;9.27;;;;;;;;;;5097333;28;20054;-46
2022/07/23 00:40:23;;;;;;;8.38;6.78;;;;;;;;;;5115584;28;20556;-46
2022/07/23 00:42:50;;;;;;;19.88;11.23;;;;;;;;;;5115897;28;20039;-52
2022/07/23 00:45:19;;;;;;;10.73;7.20;;;;;;;;;;5115752;28;20054;-56
2022/07/23 00:47:49;;;;;;;13.13;8.68;;;;;;;;;;5097298;28;20067;-47
2022/07/23 00:50:16;;;;;;;9.70;8.13;;;;;;;;;;5115900;28;20126;-47
2022/07/23 00:52:44;;;;;;;9.63;8.00;;;;;;;;;;5097021;28;20058;-51
2022/07/23 00:55:12;;;;;;;12.25;8.00;;;;;;;;;;5097280;28;20513;-53
2022/07/23 00:57:41;;;;;;;10.60;8.25;;;;;;;;;;5097108;28;20067;-50
2022/07/23 01:00:12;;;;;;;9.52;7.90;;;;;;;;;;5115484;28;20071;-49
2022/07/23 01:02:40;;;;;;;14.63;10.23;;;;;;;;;;5115697;28;20039;-47
2022/07/23 01:05:08;;;;;;;16.05;11.82;;;;;;;;;;5097358;28;20118;-47
2022/07/23 01:07:36;;;;;;;13.52;7.97;;;;;;;;;;5115525;28;20035;-48
2022/07/23 01:10:04;;;;;;;15.80;11.05;;;;;;;;;;5115291;28;20036;-54
2022/07/23 01:12:32;;;;;;;13.52;9.85;;;;;;;;;;5097055;28;20051;-50
2022/07/23 01:15:00;;;;;;;10.00;7.90;;;;;;;;;;5096558;28;20031;-47
2022/07/23 01:17:28;;;;;;;15.48;8.32;;;;;;;;;;5096799;28;20078;-50
2022/07/23 01:19:56;;;;;;;11.75;7.85;;;;;;;;;;5096769;28;20036;-49
2022/07/23 01:22:29;;;;;;;14.07;8.48;;;;;;;;;;5096739;28;20040;-47
2022/07/23 01:24:56;;;;;;;11.85;7.53;;;;;;;;;;5096581;28;20403;-49
2022/07/23 01:27:26;;;;;;;10.00;8.05;;;;;;;;;;5096632;28;20046;-47
2022/07/23 01:30:00;;;;;;;15.23;10.18;;;;;;;;;;5093203;28;20955;-50
2022/07/23 01:32:28;;;;;;;12.20;7.20;;;;;;;;;;5076116;28;20670;-55
2022/07/23 01:34:56;;;;;;;9.57;7.85;;;;;;;;;;5094400;28;20470;-52
2022/07/23 01:37:23;;;;;;;9.95;7.15;;;;;;;;;;5076071;28;20048;-49
2022/07/23 01:39:51;;;;;;;13.23;8.35;;;;;;;;;;5094198;28;20032;-48
2022/07/23 01:42:18;;;;;;;7.00;6.07;;;;;;;;;;5076202;28;20048;-50
2022/07/23 01:44:48;;;;;;;7.78;5.57;;;;;;;;;;5075569;28;20680;-51
2022/07/23 01:47:19;;;;;;;16.83;8.88;;;;;;;;;;5076043;28;20105;-50
2022/07/23 01:49:50;;;;;;;11.18;6.10;;;;;;;;;;5075860;28;20461;-56
2022/07/23 01:52:36;;;;;;;9.75;7.05;;;;;;;;;;5094118;28;20043;-49
2022/07/23 01:55:05;;;;;;;8.45;5.47;;;;;;;;;;5075829;28;20058;-47
2022/07/23 01:57:33;;;;;;;8.07;6.10;;;;;;;;;;5093857;28;20044;-48
2022/07/23 02:00:03;;;;;;;8.35;6.13;;;;;;;;;;5093702;28;20052;-48
2022/07/23 02:02:38;;;;;;;5.20;4.50;;;;;;;;;;5094271;28;20114;-46
2022/07/23 02:05:07;;;;;;;8.13;5.47;;;;;;;;;;5093870;28;20056;-48
2022/07/23 02:07:34;;;;;;;6.22;4.78;;;;;;;;;;5093867;28;20442;-51
2022/07/23 02:10:02;;;;;;;6.35;4.90;;;;;;;;;;5075449;28;20070;-55
2022/07/23 02:12:29;;;;;;;10.35;7.55;;;;;;;;;;5075464;28;20040;-56
2022/07/23 02:14:56;;;;;;;12.48;8.57;;;;;;;;;;5075402;28;20097;-48
2022/07/23 02:17:25;;;;;;;6.78;4.90;;;;;;;;;;5075273;28;20044;-47
2022/07/23 02:19:52;;;;;;;10.20;7.88;;;;;;;;;;5093529;28;20146;-48
2022/07/23 02:22:21;;;;;;;9.05;6.18;;;;;;;;;;5093082;28;20054;-53
2022/07/23 02:24:49;;;;;;;10.23;5.38;;;;;;;;;;5093303;28;20036;-49
2022/07/23 02:27:16;;;;;;;8.85;5.28;;;;;;;;;;5074921;28;20040;-51
2022/07/23 02:29:44;;;;;;;6.63;5.80;;;;;;;;;;5075214;28;20075;-47
2022/07/23 02:32:13;;;;;;;6.65;5.15;;;;;;;;;;5093223;28;20044;-48
2022/07/23 02:34:40;;;;;;;5.90;4.40;;;;;;;;;;5093399;28;20032;-49
2022/07/23 02:37:08;;;;;;;7.03;4.47;;;;;;;;;;5075064;28;20040;-46
2022/07/23 02:39:36;;;;;;;5.88;4.47;;;;;;;;;;5074917;28;20075;-55
2022/07/23 02:42:03;;;;;;;5.88;3.97;;;;;;;;;;5075204;28;20047;-48
2022/07/23 02:44:33;;;;;;;6.25;3.85;;;;;;;;;;5074819;28;20487;-46
2022/07/23 02:47:01;;;;;;;5.70;5.00;;;;;;;;;;5074798;28;20078;-51
2022/07/23 02:49:29;;;;;;;5.00;3.80;;;;;;;;;;5074714;28;20046;-48
2022/07/23 02:51:56;;;;;;;5.72;4.13;;;;;;;;;;5074553;28;20056;-50
2022/07/23 02:54:26;;;;;;;4.78;3.78;;;;;;;;;;5074752;28;20100;-49
2022/07/23 02:56:53;;;;;;;7.78;4.68;;;;;;;;;;5073648;28;20517;-50
2022/07/23 02:59:20;;;;;;;7.07;5.28;;;;;;;;;;5092629;28;20044;-50
2022/07/23 03:01:47;;;;;;;19.52;13.73;;;;;;;;;;5074202;28;20040;-51
2022/07/23 03:04:17;;;;;;;4.85;3.80;;;;;;;;;;5092721;28;20105;-48
2022/07/23 03:06:44;;;;;;;4.57;3.35;;;;;;;;;;5074547;28;20051;-47
2022/07/23 03:09:11;;;;;;;4.90;3.78;;;;;;;;;;5092523;28;20127;-55
2022/07/23 03:11:39;;;;;;;5.22;3.72;;;;;;;;;;5074552;28;20089;-48
2022/07/23 03:14:07;;;;;;;5.40;3.45;;;;;;;;;;5092442;28;20150;-56
2022/07/23 03:16:35;;;;;;;7.05;3.90;;;;;;;;;;5074227;28;20036;-50
2022/07/23 03:19:03;;;;;;;4.28;3.38;;;;;;;;;;5074229;28;20044;-48
2022/07/23 03:21:33;;;;;;;13.43;7.00;;;;;;;;;;5074211;28;20051;-54
2022/07/23 03:24:01;;;;;;;7.10;4.10;;;;;;;;;;5092512;28;20491;-51
2022/07/23 03:26:29;;;;;;;5.78;3.60;;;;;;;;;;5085143;28;20048;-50
2022/07/23 03:28:56;;;;;;;5.32;3.28;;;;;;;;;;5094275;28;20055;-49
2022/07/23 03:31:24;;;;;;;4.60;3.42;;;;;;;;;;5095688;28;20098;-52
2022/07/23 03:33:52;;;;;;;5.50;3.65;;;;;;;;;;5074198;28;20123;-48
2022/07/23 03:36:19;;;;;;;4.10;3.00;;;;;;;;;;5092192;28;20402;-46
2022/07/23 03:38:50;;;;;;;5.70;2.65;;;;;;;;;;5074029;28;20437;-54
2022/07/23 03:41:20;;;;;;;3.90;2.50;;;;;;;;;;5073856;28;20047;-49
2022/07/23 03:43:47;;;;;;;5.00;2.60;;;;;;;;;;5073694;28;20040;-48
2022/07/23 03:46:14;;;;;;;4.70;3.05;;;;;;;;;;5092367;28;20051;-47
2022/07/23 03:48:41;;;;;;;3.97;2.60;;;;;;;;;;5074025;28;20089;-51
2022/07/23 03:51:09;;;;;;;5.68;2.60;;;;;;;;;;5091714;28;20054;-51
2022/07/23 03:53:37;;;;;;;4.68;2.47;;;;;;;;;;5091845;28;20043;-49
2022/07/23 03:56:04;;;;;;;5.60;3.00;;;;;;;;;;5091800;28;20054;-49
2022/07/23 03:58:33;;;;;;;4.47;2.20;;;;;;;;;;5092074;28;20074;-49
2022/07/23 04:01:00;;;;;;;3.20;2.28;;;;;;;;;;5091845;28;20044;-48
2022/07/23 04:03:27;;;;;;;3.58;2.47;;;;;;;;;;5091846;28;20032;-48
2022/07/23 04:05:56;;;;;;;3.60;2.33;;;;;;;;;;5091869;28;20573;-56
2022/07/23 04:08:25;;;;;;;6.03;3.78;;;;;;;;;;5075712;28;20117;-56
2022/07/23 04:10:53;;;;;;;5.20;2.72;;;;;;;;;;5077722;28;20044;-47
2022/07/23 04:13:21;;;;;;;4.72;3.17;;;;;;;;;;5094576;28;20450;-50
2022/07/23 04:15:50;;;;;;;3.72;2.65;;;;;;;;;;5077631;28;20545;-47
2022/07/23 04:18:18;;;;;;;5.97;4.45;;;;;;;;;;5077732;28;20165;-50
2022/07/23 04:20:53;;;;;;;14.43;4.22;;;;;;;;;;5077477;28;20462;-48
2022/07/23 04:23:21;;;;;;;23.30;5.07;;;;;;;;;;5077530;28;20079;-47
2022/07/23 04:25:52;;;;;;;11.23;3.78;;;;;;;;;;5077738;28;20376;-46
2022/07/23 04:28:19;;;;;;;12.90;3.38;;;;;;;;;;5077242;28;20036;-48
2022/07/23 04:30:47;;;;;;;5.88;2.85;;;;;;;;;;5089265;28;20044;-46
2022/07/23 04:33:16;;;;;;;11.18;3.90;;;;;;;;;;5116126;28;20051;-55
2022/07/23 04:35:46;;;;;;;7.30;3.50;;;;;;;;;;5086582;28;20040;-46
2022/07/23 04:38:18;;;;;;;5.78;3.60;;;;;;;;;;5095630;28;20063;-47
2022/07/23 04:40:48;;;;;;;11.10;4.25;;;;;;;;;;5077374;28;20048;-50
2022/07/23 04:43:15;;;;;;;11.15;5.20;;;;;;;;;;5077410;28;20070;-48
2022/07/23 04:45:45;;;;;;;63.25;5.93;;;;;;;;;;5095746;28;20082;-47
2022/07/23 04:48:13;;;;;;;13.85;5.30;;;;;;;;;;5077133;28;20076;-48
2022/07/23 04:50:43;;;;;;;16.90;4.32;;;;;;;;;;5077204;28;20044;-48
2022/07/23 04:53:22;;;;;;;8.07;2.75;;;;;;;;;;5095266;28;20047;-45
2022/07/23 04:55:52;;;;;;;4.38;2.00;;;;;;;;;;5076828;28;20047;-51
2022/07/23 04:58:20;;;;;;;3.60;2.30;;;;;;;;;;5076873;28;20043;-49
2022/07/23 05:00:47;;;;;;;3.85;1.67;;;;;;;;;;5095081;28;20438;-51
2022/07/23 05:03:16;;;;;;;5.82;1.55;;;;;;;;;;5076484;28;20048;-57
2022/07/23 05:05:46;;;;;;;6.35;1.60;;;;;;;;;;5077161;28;20040;-48
2022/07/23 05:08:16;;;;;;;5.75;1.60;;;;;;;;;;5077072;28;20561;-53
2022/07/23 05:10:49;;;;;;;3.20;1.67;;;;;;;;;;5077054;28;20048;-52
2022/07/23 05:13:17;;;;;;;2.75;1.48;;;;;;;;;;5076775;28;20044;-51
2022/07/23 05:15:45;;;;;;;3.85;1.48;;;;;;;;;;5076723;28;20060;-50
2022/07/23 05:18:14;;;;;;;5.00;1.70;;;;;;;;;;5076323;28;20066;-52
2022/07/23 05:20:41;;;;;;;7.13;2.30;;;;;;;;;;5075828;28;20159;-48
2022/07/23 05:23:12;;;;;;;4.20;1.88;;;;;;;;;;5076455;28;20047;-49
2022/07/23 05:25:40;;;;;;;6.75;1.50;;;;;;;;;;5076444;28;20071;-54
2022/07/23 05:28:08;;;;;;;3.22;1.48;;;;;;;;;;5076445;28;20044;-47
2022/07/23 05:30:35;;;;;;;2.78;1.60;;;;;;;;;;5094511;28;20063;-48
2022/07/23 05:33:07;;;;;;;4.03;1.33;;;;;;;;;;5076244;28;20074;-48
2022/07/23 05:35:35;;;;;;;8.55;1.45;;;;;;;;;;5076381;28;20040;-47
2022/07/23 05:38:18;;;;;;;5.60;1.48;;;;;;;;;;5076248;28;20083;-47
2022/07/23 05:40:48;;;;;;;5.85;1.40;;;;;;;;;;5076375;28;20441;-52
2022/07/23 05:43:15;;;;;;;2.53;1.25;;;;;;;;;;5076271;28;20040;-48
2022/07/23 05:45:42;;;;;;;3.30;1.20;;;;;;;;;;5094100;28;20055;-49
2022/07/23 05:48:10;;;;;;;4.40;1.55;;;;;;;;;;5094135;28;20040;-49
2022/07/23 05:50:47;;;;;;;3.97;1.33;;;;;;;;;;5075968;28;20055;-55
2022/07/23 05:53:28;;;;;;;2.45;1.25;;;;;;;;;;5075973;28;20499;-47
2022/07/23 05:55:59;;;;;;;6.75;1.20;;;;;;;;;;5094191;28;20091;-45
2022/07/23 05:58:26;;;;;;;2.95;1.35;;;;;;;;;;5075882;28;20046;-46
2022/07/23 06:00:54;;;;;;;4.53;1.30;;;;;;;;;;5075917;28;20097;-47
2022/07/23 06:03:21;;;;;;;4.65;1.67;;;;;;;;;;5075777;28;20507;-54
2022/07/23 06:05:49;;;;;;;3.58;1.30;;;;;;;;;;5075916;28;20044;-54
2022/07/23 06:08:16;;;;;;;3.60;1.38;;;;;;;;;;5090094;28;20498;-45
2022/07/23 06:10:45;;;;;;;3.65;1.58;;;;;;;;;;5095933;28;20039;-48
2022/07/23 06:13:12;;;;;;;4.15;1.90;;;;;;;;;;5095713;28;20047;-50
2022/07/23 06:15:39;;;;;;;5.07;1.35;;;;;;;;;;5114047;28;20044;-50
2022/07/23 06:18:07;;;;;;;4.20;1.40;;;;;;;;;;5095503;28;20434;-48
2022/07/23 06:20:34;;;;;;;2.28;1.55;;;;;;;;;;5113629;28;20044;-56
2022/07/23 06:23:01;;;;;;;2.67;1.58;;;;;;;;;;5095595;28;20130;-52
2022/07/23 06:25:28;;;;;;;2.03;1.27;;;;;;;;;;5092166;28;20048;-47
2022/07/23 06:27:56;;;;;;;6.47;2.03;;;;;;;;;;5075318;28;20044;-54
2022/07/23 06:30:28;;;;;;;3.20;1.10;;;;;;;;;;5093187;28;20400;-48
2022/07/23 06:32:55;;;;;;;3.33;1.02;;;;;;;;;;5074259;28;20048;-47
2022/07/23 06:35:23;;;;;;;2.65;0.90;;;;;;;;;;5075229;28;20384;-49
2022/07/23 06:37:50;;;;;;;2.00;1.15;;;;;;;;;;5058769;28;20040;-46
2022/07/23 06:40:18;;;;;;;2.58;1.17;;;;;;;;;;5075240;28;20093;-47
2022/07/23 06:42:45;;;;;;;2.20;1.27;;;;;;;;;;5074688;28;20068;-48
2022/07/23 06:45:17;;;;;;;2.28;1.25;;;;;;;;;;5075087;28;20044;-47
2022/07/23 06:47:46;;;;;;;2.40;0.90;;;;;;;;;;5075081;28;20526;-55
2022/07/23 06:50:13;;;;;;;3.88;1.05;;;;;;;;;;5074837;28;20127;-51
2022/07/23 06:52:41;;;;;;;1.98;1.15;;;;;;;;;;5074637;28;20087;-50
2022/07/23 06:55:10;;;;;;;2.00;1.10;;;;;;;;;;5092673;28;20039;-48
2022/07/23 06:57:37;;;;;;;2.53;1.20;;;;;;;;;;5092596;28;20044;-47
2022/07/23 07:00:06;;;;;;;1.60;1.02;;;;;;;;;;5074662;28;20047;-48
2022/07/23 07:02:34;;;;;;;2.22;1.08;;;;;;;;;;5092822;28;20115;-47
2022/07/23 07:05:02;;;;;;;1.77;1.00;;;;;;;;;;5074464;28;20044;-47
2022/07/23 07:07:33;;;;;;;2.13;1.27;;;;;;;;;;5092823;28;20051;-48
2022/07/23 07:10:02;;;;;;;3.78;2.00;;;;;;;;;;5092300;28;20402;-48
2022/07/23 07:15:48;;;;;;;1.52;0.90;;;;;;;;;;4747682;30;20050;-47
2022/07/23 07:18:15;;;;;;;2.33;1.10;;;;;;;;;;4751466;30;20048;-47
2022/07/23 07:20:43;;;;;;;7.05;2.67;;;;;;;;;;4751513;30;20056;-50
2022/07/23 07:23:10;;;;;;;3.70;1.70;;;;;;;;;;4751700;30;20799;-46
2022/07/23 07:25:42;;;;;;;3.42;1.08;;;;;;;;;;4751221;30;20048;-46
2022/07/23 07:28:09;;;;;;;3.47;1.10;;;;;;;;;;4751676;30;20048;-52
2022/07/23 07:30:36;;;;;;;2.30;1.10;;;;;;;;;;4751558;30;20047;-48
2022/07/23 07:33:04;;;;;;;2.92;1.40;;;;;;;;;;4751426;30;20084;-52
2022/07/23 07:35:32;;;;;;;8.05;5.40;;;;;;;;;;4751507;30;20127;-47
2022/07/23 07:38:00;;;;;;;3.95;1.70;;;;;;;;;;4751272;30;20126;-51
2022/07/23 07:40:27;;;;;;;2.38;1.10;;;;;;;;;;4751477;30;20059;-46
2022/07/23 07:43:01;;;;;;;2.60;1.20;;;;;;;;;;4751221;30;20075;-46
2022/07/23 07:45:29;;;;;;;2.03;1.10;;;;;;;;;;4750907;30;20411;-49
2022/07/23 07:47:57;;;;;;;3.30;1.52;;;;;;;;;;4751202;30;20059;-48
2022/07/23 07:50:24;;;;;;;3.20;1.00;;;;;;;;;;4751260;30;20048;-47
2022/07/23 07:52:51;;;;;;;1.70;1.08;;;;;;;;;;4751525;30;20059;-48
2022/07/23 07:55:19;;;;;;;2.15;1.30;;;;;;;;;;4751608;30;20528;-51
2022/07/23 07:57:47;;;;;;;5.07;1.38;;;;;;;;;;4750960;30;20114;-46
2022/07/23 08:00:16;;;;;;;39.55;19.40;;;;;;;;;;4751217;30;20490;-50
2022/07/23 08:02:45;;;;;;;18.67;10.18;;;;;;;;;;4751288;30;20040;-56
2022/07/23 08:05:14;;;;;;;7.68;2.58;;;;;;;;;;4753587;30;20056;-53
2022/07/23 08:07:41;;;;;;;3.40;1.90;;;;;;;;;;4752118;30;20056;-47
2022/07/23 08:10:09;;;;;;;5.30;2.33;;;;;;;;;;4751015;30;20048;-49
2022/07/23 08:12:45;;;;;;;2.60;1.60;;;;;;;;;;4751059;30;20067;-51
2022/07/23 08:15:16;;;;;;;5.90;2.45;;;;;;;;;;4751055;30;20098;-53
2022/07/23 08:17:44;;;;;;;2.17;1.30;;;;;;;;;;4749843;30;20285;-49
2022/07/23 08:20:15;;;;;;;2.78;1.35;;;;;;;;;;4751050;30;20044;-49
2022/07/23 08:22:46;;;;;;;3.35;1.20;;;;;;;;;;4749697;30;20431;-48
2022/07/23 08:25:15;;;;;;;7.22;1.65;;;;;;;;;;4751129;30;20060;-48
2022/07/23 08:27:42;;;;;;;3.00;1.70;;;;;;;;;;4750936;30;20052;-48
2022/07/23 08:30:11;;;;;;;5.68;1.80;;;;;;;;;;4751049;30;20048;-54
2022/07/23 08:32:54;;;;;;;5.93;1.95;;;;;;;;;;4751031;30;20124;-50
2022/07/23 08:35:30;;;;;;;2.65;1.52;;;;;;;;;;4751055;30;20048;-51
2022/07/23 08:38:00;;;;;;;49.58;25.38;;;;;;;;;;4750704;30;20419;-50
2022/07/23 08:40:31;;;;;;;7.10;2.70;;;;;;;;;;4750948;30;20519;-49
2022/07/23 08:42:59;;;;;;;2.75;1.70;;;;;;;;;;4751011;30;20080;-52
2022/07/23 08:45:27;;;;;;;3.28;1.50;;;;;;;;;;4750984;30;20044;-57
2022/07/23 08:48:01;;;;;;;3.33;1.50;;;;;;;;;;4750789;30;20056;-48
2022/07/23 08:50:32;;;;;;;2.47;1.58;;;;;;;;;;4750859;30;20044;-50
2022/07/23 08:53:02;;;;;;;2.95;1.45;;;;;;;;;;4750090;30;20048;-45
2022/07/23 08:55:29;;;;;;;3.00;1.50;;;;;;;;;;4751907;30;20051;-48
2022/07/23 08:57:57;;;;;;;2.22;1.30;;;;;;;;;;4753406;30;20044;-52
2022/07/23 09:00:24;;;;;;;2.58;1.50;;;;;;;;;;4767524;30;20150;-47
2022/07/23 09:02:52;;;;;;;2.38;1.45;;;;;;;;;;4754160;30;20056;-49
2022/07/23 09:05:20;;;;;;;7.78;3.00;;;;;;;;;;4753739;30;20527;-48
2022/07/23 09:08:07;;;;;;;4.15;1.75;;;;;;;;;;4753789;30;20405;-48
2022/07/23 09:10:52;;;;;;;2.10;1.30;;;;;;;;;;4736065;30;20048;-53
2022/07/23 09:13:30;;;;;;;4.63;1.75;;;;;;;;;;4748173;30;20048;-48
2022/07/23 09:16:00;;;;;;;2.80;1.38;;;;;;;;;;4752396;30;20082;-48
2022/07/23 09:18:38;;;;;;;2.35;1.77;;;;;;;;;;4753781;30;20052;-55
2022/07/23 09:21:11;;;;;;;3.15;1.70;;;;;;;;;;4753414;30;20052;-47
2022/07/23 09:23:41;;;;;;;;;;;;;;;;;;4754617;30;20117;-47
2022/07/23 09:26:31;;;;;;;2.30;1.40;;;;;;;;;;4771093;30;20342;-53
2022/07/23 09:29:08;;;;;;;4.18;2.47;;;;;;;;;;4756739;30;20048;-50
2022/07/23 09:31:58;;;;;;;2.90;1.48;;;;;;;;;;4753054;30;20505;-52
2022/07/23 09:34:35;;;;;;;2.72;1.42;;;;;;;;;;4753690;30;20043;-47
2022/07/23 09:37:11;;;;;;;2.25;1.40;;;;;;;;;;4753360;30;20527;-47
2022/07/23 09:39:39;;;;;;;2.30;1.38;;;;;;;;;;4752961;30;20064;-48
2022/07/23 09:42:13;;;;;;;4.78;1.50;;;;;;;;;;4752983;30;20048;-48
2022/07/23 09:44:43;;;;;;;4.13;1.55;;;;;;;;;;4753063;30;20424;-55
2022/07/23 09:47:10;;;;;;;3.30;1.40;;;;;;;;;;4753200;30;20469;-48
2022/07/23 09:49:37;;;;;;;4.35;1.88;;;;;;;;;;4752994;30;20044;-48
2022/07/23 09:52:05;;;;;;;1.90;1.38;;;;;;;;;;4752948;30;20133;-49
2022/07/23 09:54:38;;;;;;;2.75;1.58;;;;;;;;;;4752924;30;20509;-48
2022/07/23 09:57:20;;;;;;;2.55;1.48;;;;;;;;;;4753039;30;20048;-53
2022/07/23 09:59:50;;;;;;;4.07;1.30;;;;;;;;;;4752825;30;20075;-48
2022/07/23 10:02:17;;;;;;;2.53;1.30;;;;;;;;;;4752114;30;20531;-55
2022/07/23 10:05:10;;;;;;;5.45;3.40;;;;;;;;;;4752629;30;20160;-47
2022/07/23 10:08:00;;;;;;;4.68;2.05;;;;;;;;;;4748426;30;20155;-48
2022/07/23 10:11:03;;;;;;;2.35;1.30;;;;;;;;;;4732701;30;20057;-49
2022/07/23 10:13:54;;;;;;;7.95;1.70;;;;;;;;;;4749074;30;20400;-50
2022/07/23 10:16:57;;;;;;;2.50;1.42;;;;;;;;;;4758171;30;20052;-48
2022/07/23 10:19:25;;;;;;;2.92;1.70;;;;;;;;;;4752490;30;20570;-50
2022/07/23 10:21:58;;;;;;;3.10;1.48;;;;;;;;;;4752366;30;20055;-47
2022/07/23 10:24:41;;;;;;;4.88;1.50;;;;;;;;;;4752755;30;20044;-48
2022/07/23 10:27:30;;;;;;;2.70;1.33;;;;;;;;;;4752614;30;20052;-49
2022/07/23 10:30:09;;;;;;;3.60;1.73;;;;;;;;;;4752278;30;20044;-49
2022/07/23 10:33:05;;;;;;;3.65;1.73;;;;;;;;;;4752244;30;20501;-46
2022/07/23 10:36:10;;;;;;;2.83;1.85;;;;;;;;;;4752344;30;20412;-50
2022/07/23 10:38:55;;;;;;;5.70;2.25;;;;;;;;;;4751849;30;20144;-48
2022/07/23 10:41:34;;;;;;;3.90;2.20;;;;;;;;;;4752309;30;20056;-46
2022/07/23 10:44:17;;;;;;;3.97;2.47;;;;;;;;;;4752134;30;20055;-49
2022/07/23 10:49:49;;;;;;;;;;;;;;;;;;4752291;30;19926;-53
2022/07/23 10:52:24;;;;;;;34.10;22.58;;;;;;;;;;4752260;30;19973;-47
2022/07/23 10:54:57;;;;;;;6.35;3.30;;;;;;;;;;4751630;30;20063;-47
2022/07/23 10:57:25;;;;;;;;;;;;;;;;;;4752375;30;20052;-48
2022/07/23 11:02:31;;;;;;;5.75;1.73;;;;;;;;;;4751925;30;20094;-47
2022/07/23 11:05:06;;;;;;;2.67;1.92;;;;;;;;;;4751645;30;20044;-48
2022/07/23 11:07:35;;;;;;;4.82;2.03;;;;;;;;;;4751211;30;20052;-46
2022/07/23 11:10:03;;;;;;;4.82;1.88;;;;;;;;;;4751519;30;20059;-50
2022/07/23 11:12:30;;;;;;;2.90;2.00;;;;;;;;;;4751513;30;20045;-48
2022/07/23 11:15:03;;;;;;;2.65;1.70;;;;;;;;;;4751656;30;20456;-47
2022/07/23 11:17:31;;;;;;;;;;;;;;;;;;4751492;30;20522;-48
2022/07/23 11:20:17;;;;;;;4.88;1.80;;;;;;;;;;4751539;30;20017;-49
2022/07/23 11:22:44;;;;;;;2.10;1.60;;;;;;;;;;4751498;30;20106;-49
2022/07/23 11:25:32;;;;;;;3.97;2.10;;;;;;;;;;4751570;30;20052;-47
2022/07/23 11:28:20;;;;;;;3.20;1.60;;;;;;;;;;4751529;30;20060;-47
2022/07/23 11:30:50;;;;;;;2.70;1.60;;;;;;;;;;4750285;30;20045;-48
2022/07/23 11:33:19;;;;;;;3.65;2.50;;;;;;;;;;4751458;30;20079;-49
2022/07/23 11:36:00;;;;;;;2.80;1.40;;;;;;;;;;4751165;30;20052;-48
2022/07/23 11:38:30;;;;;;;2.90;1.70;;;;;;;;;;4751453;30;20531;-50
2022/07/23 11:40:58;;;;;;;6.90;4.82;;;;;;;;;;4751041;30;20131;-48
2022/07/23 11:43:25;;;;;;;10.45;7.60;;;;;;;;;;4765042;30;20048;-50
2022/07/23 11:45:58;;;;;;;5.85;3.17;;;;;;;;;;4751060;30;20113;-54
2022/07/23 11:48:28;;;;;;;4.65;2.45;;;;;;;;;;4751326;30;20101;-49
2022/07/23 11:50:57;;;;;;;4.00;2.00;;;;;;;;;;4751441;30;20098;-52
2022/07/23 11:53:30;;;;;;;3.22;2.05;;;;;;;;;;4751007;30;20072;-52
2022/07/23 11:56:09;;;;;;;4.25;2.00;;;;;;;;;;4751399;30;20060;-53
2022/07/23 11:58:38;;;;;;;4.00;2.30;;;;;;;;;;4751054;30;20099;-49
2022/07/23 12:01:06;;;;;;;4.40;2.50;;;;;;;;;;4751291;30;20501;-49
2022/07/23 12:03:50;;;;;;;9.63;2.03;;;;;;;;;;4750962;30;20055;-50
2022/07/23 12:06:18;;;;;;;2.85;1.92;;;;;;;;;;4751146;30;20037;-48
2022/07/23 12:08:45;;;;;;;3.63;2.22;;;;;;;;;;4751168;30;20455;-49
2022/07/23 12:11:13;;;;;;;3.83;2.15;;;;;;;;;;4751081;30;20056;-47
2022/07/23 12:13:40;;;;;;;5.68;3.03;;;;;;;;;;4750794;30;20056;-47
2022/07/23 12:16:08;;;;;;;4.20;2.95;;;;;;;;;;4750715;30;20048;-51
2022/07/23 12:18:36;;;;;;;4.47;2.55;;;;;;;;;;4750406;30;20048;-50
2022/07/23 12:21:06;;;;;;;3.38;2.08;;;;;;;;;;4751079;30;20048;-48
2022/07/23 12:23:37;;;;;;;3.90;2.30;;;;;;;;;;4750871;30;20056;-48
2022/07/23 12:26:07;;;;;;;3.38;1.95;;;;;;;;;;4751051;30;20620;-48
2022/07/23 12:28:37;;;;;;;3.03;2.08;;;;;;;;;;4764368;30;20131;-47
2022/07/23 12:31:07;;;;;;;3.72;2.30;;;;;;;;;;4739037;30;20513;-54
2022/07/23 12:33:38;;;;;;;4.82;2.08;;;;;;;;;;4754201;30;20393;-47
2022/07/23 12:36:07;;;;;;;26.25;14.07;;;;;;;;;;4754360;30;20048;-51
2022/07/23 12:38:49;;;;;;;47.65;27.30;;;;;;;;;;4754296;30;20056;-50
2022/07/23 12:41:17;;;;;;;6.65;3.22;;;;;;;;;;4754104;30;20420;-48
2022/07/23 12:43:46;;;;;;;5.85;2.65;;;;;;;;;;4753936;30;20109;-49
2022/07/23 12:46:19;;;;;;;3.72;2.35;;;;;;;;;;4754247;30;20378;-55
2022/07/23 12:48:49;;;;;;;4.30;2.50;;;;;;;;;;4754167;30;20056;-52
2022/07/23 12:51:30;;;;;;;4.95;2.25;;;;;;;;;;4754118;30;20106;-54
2022/07/23 12:54:06;;;;;;;3.20;2.00;;;;;;;;;;4754138;30;20124;-52
2022/07/23 12:56:36;;;;;;;3.25;2.40;;;;;;;;;;4754175;30;20047;-47
2022/07/23 12:59:10;;;;;;;3.72;2.05;;;;;;;;;;4754083;30;20149;-49
2022/07/23 13:01:39;;;;;;;60.75;40.40;;;;;;;;;;4753931;30;20048;-55
2022/07/23 13:04:18;;;;;;;10.32;7.63;;;;;;;;;;4753849;30;20504;-54
2022/07/23 13:07:03;;;;;;;2.90;1.88;;;;;;;;;;4753690;30;20044;-55
2022/07/23 13:09:33;;;;;;;3.33;2.03;;;;;;;;;;4753804;30;20509;-52
2022/07/23 13:12:12;;;;;;;4.03;1.92;;;;;;;;;;4753841;30;20052;-52
2022/07/23 13:14:47;;;;;;;4.50;2.20;;;;;;;;;;4752979;30;20066;-54
2022/07/23 13:17:14;;;;;;;3.13;2.08;;;;;;;;;;4753641;30;20040;-50
2022/07/23 13:19:41;;;;;;;3.78;2.20;;;;;;;;;;4766568;30;20040;-53
2022/07/23 13:22:13;;;;;;;3.10;2.17;;;;;;;;;;4753622;30;20500;-55
2022/07/23 13:24:40;;;;;;;4.07;2.10;;;;;;;;;;4753660;30;20051;-55
2022/07/23 13:27:08;;;;;;;6.47;2.35;;;;;;;;;;4753477;30;20048;-51
2022/07/23 13:29:38;;;;;;;5.57;2.30;;;;;;;;;;4753184;30;20076;-54
2022/07/23 13:32:06;;;;;;;9.27;2.10;;;;;;;;;;4753140;30;20453;-51
2022/07/23 13:34:39;;;;;;;3.97;2.42;;;;;;;;;;4753078;30;20132;-52
2022/07/23 13:37:08;;;;;;;7.30;2.33;;;;;;;;;;4753182;30;20432;-52
2022/07/23 13:39:36;;;;;;;30.70;18.40;;;;;;;;;;4753338;30;20110;-49
2022/07/23 13:42:05;;;;;;;18.85;10.77;;;;;;;;;;4752719;30;20048;-55
2022/07/23 13:44:35;;;;;;;6.38;4.93;;;;;;;;;;4753464;30;20048;-51
2022/07/23 13:47:04;;;;;;;10.23;6.22;;;;;;;;;;4748803;30;20071;-54
2022/07/23 13:49:35;;;;;;;5.38;3.70;;;;;;;;;;4752958;30;20058;-54
2022/07/23 13:52:05;;;;;;;4.50;3.15;;;;;;;;;;4752997;30;20044;-50
2022/07/23 13:54:35;;;;;;;5.00;2.40;;;;;;;;;;4752858;30;20483;-51
2022/07/23 13:57:03;;;;;;;3.97;2.65;;;;;;;;;;4753213;30;20048;-55
2022/07/23 13:59:31;;;;;;;5.20;2.22;;;;;;;;;;4752817;30;20393;-50
2022/07/23 14:01:58;;;;;;;6.35;2.63;;;;;;;;;;4752975;30;20044;-46
2022/07/23 14:04:46;;;;;;;6.25;2.30;;;;;;;;;;4765504;30;20052;-50
2022/07/23 14:07:15;;;;;;;4.22;2.45;;;;;;;;;;4751937;30;20072;-48
2022/07/23 14:09:43;;;;;;;3.80;2.35;;;;;;;;;;4752505;30;20059;-53
2022/07/23 14:12:11;;;;;;;3.50;2.70;;;;;;;;;;4752764;30;20044;-48
2022/07/23 14:14:38;;;;;;;9.35;4.95;;;;;;;;;;4752944;30;20057;-52
2022/07/23 14:17:06;;;;;;;5.32;3.50;;;;;;;;;;4752640;30;20424;-49
2022/07/23 14:19:37;;;;;;;4.03;2.53;;;;;;;;;;4752755;30;20043;-49
2022/07/23 14:22:07;;;;;;;4.55;2.60;;;;;;;;;;4752732;30;20107;-52
2022/07/23 14:24:34;;;;;;;5.55;3.35;;;;;;;;;;4752755;30;20051;-46
2022/07/23 14:27:04;;;;;;;7.05;3.30;;;;;;;;;;4752624;30;20521;-54
2022/07/23 14:29:32;;;;;;;4.70;2.50;;;;;;;;;;4752229;30;20054;-54
2022/07/23 14:32:00;;;;;;;3.67;2.47;;;;;;;;;;4751789;30;20067;-47
2022/07/23 14:34:28;;;;;;;5.43;3.03;;;;;;;;;;4751392;30;20037;-49
2022/07/23 14:36:58;;;;;;;3.40;2.70;;;;;;;;;;4751830;30;20123;-48
2022/07/23 14:39:29;;;;;;;4.40;2.78;;;;;;;;;;4749512;30;20040;-48
2022/07/23 14:41:56;;;;;;;5.10;3.05;;;;;;;;;;4751768;30;20082;-48
2022/07/23 14:44:25;;;;;;;4.70;2.67;;;;;;;;;;4751972;30;20075;-51
2022/07/23 14:46:55;;;;;;;6.60;3.10;;;;;;;;;;4751074;30;20127;-48
2022/07/23 14:49:31;;;;;;;4.88;3.13;;;;;;;;;;4752242;30;20093;-46
2022/07/23 14:52:02;;;;;;;4.20;3.10;;;;;;;;;;4751522;30;20145;-50
2022/07/23 14:54:39;;;;;;;4.55;2.92;;;;;;;;;;4751783;30;20511;-48
2022/07/23 14:57:14;;;;;;;50.03;33.17;;;;;;;;;;4752090;30;20055;-52
2022/07/23 14:59:53;;;;;;;6.32;3.90;;;;;;;;;;4751871;30;20076;-48
2022/07/23 15:02:22;;;;;;;7.32;3.35;;;;;;;;;;4752063;30;20545;-48
2022/07/23 15:04:54;;;;;;;5.32;3.35;;;;;;;;;;4768742;30;20063;-47
2022/07/23 15:07:24;;;;;;;4.43;2.92;;;;;;;;;;4769624;30;20146;-48
2022/07/23 15:09:58;;;;;;;3.85;2.70;;;;;;;;;;4754420;30;20054;-49